sensor_id;sensor_type;location;lat;lon;timestamp;temperature;humidity
45489;DHT22;31236;55.026;61.042;2022-08-14T00:00:17;13.20;77.10
45489;DHT22;31236;55.026;61.042;2022-08-14T00:02:48;13.10;76.90
45489;DHT22;31236;55.026;61.042;2022-08-14T00:05:20;13.10;77.20
45489;DHT22;31236;55.026;61.042;2022-08-14T00:07:49;13.10;77.50
45489;DHT22;31236;55.026;61.042;2022-08-14T00:10:22;13.10;77.00
45489;DHT22;31236;55.026;61.042;2022-08-14T00:12:54;13.00;77.10
45489;DHT22;31236;55.026;61.042;2022-08-14T00:15:28;12.90;77.60
45489;DHT22;31236;55.026;61.042;2022-08-14T00:18:01;12.90;77.90
45489;DHT22;31236;55.026;61.042;2022-08-14T00:20:33;12.80;78.20
45489;DHT22;31236;55.026;61.042;2022-08-14T00:23:06;12.80;78.20
45489;DHT22;31236;55.026;61.042;2022-08-14T00:25:37;12.80;78.30
45489;DHT22;31236;55.026;61.042;2022-08-14T00:28:11;12.90;78.40
45489;DHT22;31236;55.026;61.042;2022-08-14T00:30:45;12.90;78.30
45489;DHT22;31236;55.026;61.042;2022-08-14T00:33:19;13.00;78.40
45489;DHT22;31236;55.026;61.042;2022-08-14T00:35:50;13.00;78.60
45489;DHT22;31236;55.026;61.042;2022-08-14T00:38:20;13.00;78.80
45489;DHT22;31236;55.026;61.042;2022-08-14T00:40:51;12.80;79.30
45489;DHT22;31236;55.026;61.042;2022-08-14T00:43:21;12.80;79.30
45489;DHT22;31236;55.026;61.042;2022-08-14T00:45:52;12.80;79.10
45489;DHT22;31236;55.026;61.042;2022-08-14T00:48:22;12.70;79.20
45489;DHT22;31236;55.026;61.042;2022-08-14T00:50:56;12.80;79.00
45489;DHT22;31236;55.026;61.042;2022-08-14T00:53:28;12.70;78.80
45489;DHT22;31236;55.026;61.042;2022-08-14T00:56:00;12.60;78.70
45489;DHT22;31236;55.026;61.042;2022-08-14T00:58:35;12.70;78.80
45489;DHT22;31236;55.026;61.042;2022-08-14T01:01:08;12.70;79.20
45489;DHT22;31236;55.026;61.042;2022-08-14T01:03:42;12.80;79.50
45489;DHT22;31236;55.026;61.042;2022-08-14T01:06:17;12.80;79.70
45489;DHT22;31236;55.026;61.042;2022-08-14T01:08:49;12.80;79.80
45489;DHT22;31236;55.026;61.042;2022-08-14T01:11:23;12.90;79.70
45489;DHT22;31236;55.026;61.042;2022-08-14T01:13:56;12.90;79.70
45489;DHT22;31236;55.026;61.042;2022-08-14T01:16:28;12.80;80.20
45489;DHT22;31236;55.026;61.042;2022-08-14T01:18:59;12.90;80.70
45489;DHT22;31236;55.026;61.042;2022-08-14T01:21:48;12.90;81.30
45489;DHT22;31236;55.026;61.042;2022-08-14T01:24:20;12.90;81.40
45489;DHT22;31236;55.026;61.042;2022-08-14T01:26:52;13.00;81.20
45489;DHT22;31236;55.026;61.042;2022-08-14T01:29:24;13.00;81.20
45489;DHT22;31236;55.026;61.042;2022-08-14T01:31:56;13.10;81.70
45489;DHT22;31236;55.026;61.042;2022-08-14T01:35:02;13.10;81.90
45489;DHT22;31236;55.026;61.042;2022-08-14T01:37:03;13.20;82.00
45489;DHT22;31236;55.026;61.042;2022-08-14T01:39:35;13.20;81.80
45489;DHT22;31236;55.026;61.042;2022-08-14T01:42:08;13.40;82.00
45489;DHT22;31236;55.026;61.042;2022-08-14T01:44:40;13.40;82.10
45489;DHT22;31236;55.026;61.042;2022-08-14T01:47:14;13.50;82.20
45489;DHT22;31236;55.026;61.042;2022-08-14T01:49:45;13.50;82.40
45489;DHT22;31236;55.026;61.042;2022-08-14T01:52:17;13.60;82.70
45489;DHT22;31236;55.026;61.042;2022-08-14T01:54:49;13.60;82.90
45489;DHT22;31236;55.026;61.042;2022-08-14T01:57:21;13.70;82.90
45489;DHT22;31236;55.026;61.042;2022-08-14T01:59:52;13.70;82.70
45489;DHT22;31236;55.026;61.042;2022-08-14T02:02:28;13.80;82.50
45489;DHT22;31236;55.026;61.042;2022-08-14T02:05:00;13.80;82.30
45489;DHT22;31236;55.026;61.042;2022-08-14T02:07:36;13.90;82.40
45489;DHT22;31236;55.026;61.042;2022-08-14T02:10:11;13.90;82.40
45489;DHT22;31236;55.026;61.042;2022-08-14T02:12:44;14.00;82.80
45489;DHT22;31236;55.026;61.042;2022-08-14T02:15:17;14.00;82.80
45489;DHT22;31236;55.026;61.042;2022-08-14T02:17:48;14.10;82.50
45489;DHT22;31236;55.026;61.042;2022-08-14T02:20:21;14.20;81.70
45489;DHT22;31236;55.026;61.042;2022-08-14T02:22:53;14.20;79.90
45489;DHT22;31236;55.026;61.042;2022-08-14T02:25:25;14.30;78.70
45489;DHT22;31236;55.026;61.042;2022-08-14T02:27:56;14.40;78.40
45489;DHT22;31236;55.026;61.042;2022-08-14T02:30:27;14.40;78.00
45489;DHT22;31236;55.026;61.042;2022-08-14T02:32:57;14.50;77.50
45489;DHT22;31236;55.026;61.042;2022-08-14T02:35:28;14.50;76.90
45489;DHT22;31236;55.026;61.042;2022-08-14T02:37:58;14.60;75.80
45489;DHT22;31236;55.026;61.042;2022-08-14T02:40:28;14.60;75.50
45489;DHT22;31236;55.026;61.042;2022-08-14T02:43:01;14.60;75.70
45489;DHT22;31236;55.026;61.042;2022-08-14T02:45:32;14.70;75.10
45489;DHT22;31236;55.026;61.042;2022-08-14T02:48:05;14.70;74.60
45489;DHT22;31236;55.026;61.042;2022-08-14T02:50:36;14.80;74.70
45489;DHT22;31236;55.026;61.042;2022-08-14T02:53:08;14.90;74.30
45489;DHT22;31236;55.026;61.042;2022-08-14T02:55:42;14.90;74.10
45489;DHT22;31236;55.026;61.042;2022-08-14T02:58:14;15.00;73.40
45489;DHT22;31236;55.026;61.042;2022-08-14T03:00:45;15.00;73.50
45489;DHT22;31236;55.026;61.042;2022-08-14T03:03:16;15.00;73.70
45489;DHT22;31236;55.026;61.042;2022-08-14T03:06:26;15.10;73.60
45489;DHT22;31236;55.026;61.042;2022-08-14T03:08:22;15.10;74.30
45489;DHT22;31236;55.026;61.042;2022-08-14T03:10:54;15.20;73.80
45489;DHT22;31236;55.026;61.042;2022-08-14T03:13:24;15.30;72.70
45489;DHT22;31236;55.026;61.042;2022-08-14T03:15:54;15.30;72.90
45489;DHT22;31236;55.026;61.042;2022-08-14T03:18:26;15.30;72.60
45489;DHT22;31236;55.026;61.042;2022-08-14T03:21:00;15.40;72.30
45489;DHT22;31236;55.026;61.042;2022-08-14T03:23:34;15.50;72.60
45489;DHT22;31236;55.026;61.042;2022-08-14T03:26:25;15.60;72.00
45489;DHT22;31236;55.026;61.042;2022-08-14T03:28:58;15.70;71.70
45489;DHT22;31236;55.026;61.042;2022-08-14T03:31:29;15.70;70.50
45489;DHT22;31236;55.026;61.042;2022-08-14T03:34:01;15.80;70.80
45489;DHT22;31236;55.026;61.042;2022-08-14T03:36:31;15.80;70.70
45489;DHT22;31236;55.026;61.042;2022-08-14T03:39:03;15.90;71.10
45489;DHT22;31236;55.026;61.042;2022-08-14T03:41:34;15.90;70.70
45489;DHT22;31236;55.026;61.042;2022-08-14T03:44:06;16.00;69.50
45489;DHT22;31236;55.026;61.042;2022-08-14T03:46:37;16.10;69.60
45489;DHT22;31236;55.026;61.042;2022-08-14T03:49:09;16.10;69.30
45489;DHT22;31236;55.026;61.042;2022-08-14T03:51:40;16.20;68.90
45489;DHT22;31236;55.026;61.042;2022-08-14T03:54:11;16.20;69.30
45489;DHT22;31236;55.026;61.042;2022-08-14T03:56:42;16.30;68.80
45489;DHT22;31236;55.026;61.042;2022-08-14T03:59:12;16.40;67.90
45489;DHT22;31236;55.026;61.042;2022-08-14T04:01:42;16.40;67.90
45489;DHT22;31236;55.026;61.042;2022-08-14T04:04:14;16.50;68.10
45489;DHT22;31236;55.026;61.042;2022-08-14T04:06:46;16.60;67.70
45489;DHT22;31236;55.026;61.042;2022-08-14T04:09:18;16.60;67.80
45489;DHT22;31236;55.026;61.042;2022-08-14T04:11:48;16.80;67.20
45489;DHT22;31236;55.026;61.042;2022-08-14T04:14:20;16.80;66.30
45489;DHT22;31236;55.026;61.042;2022-08-14T04:16:50;16.80;66.20
45489;DHT22;31236;55.026;61.042;2022-08-14T04:19:21;16.90;67.60
45489;DHT22;31236;55.026;61.042;2022-08-14T04:21:51;17.00;65.70
45489;DHT22;31236;55.026;61.042;2022-08-14T04:24:21;17.10;66.60
45489;DHT22;31236;55.026;61.042;2022-08-14T04:26:52;17.20;65.30
45489;DHT22;31236;55.026;61.042;2022-08-14T04:29:22;17.30;66.50
45489;DHT22;31236;55.026;61.042;2022-08-14T04:31:52;17.40;65.90
45489;DHT22;31236;55.026;61.042;2022-08-14T04:34:22;17.50;64.30
45489;DHT22;31236;55.026;61.042;2022-08-14T04:36:53;17.60;64.30
45489;DHT22;31236;55.026;61.042;2022-08-14T04:39:43;17.60;63.90
45489;DHT22;31236;55.026;61.042;2022-08-14T04:42:33;17.70;62.40
45489;DHT22;31236;55.026;61.042;2022-08-14T04:45:25;17.70;63.50
45489;DHT22;31236;55.026;61.042;2022-08-14T04:48:16;17.80;63.70
45489;DHT22;31236;55.026;61.042;2022-08-14T04:50:49;17.90;63.30
45489;DHT22;31236;55.026;61.042;2022-08-14T04:53:22;18.00;63.10
45489;DHT22;31236;55.026;61.042;2022-08-14T04:55:53;18.10;61.70
45489;DHT22;31236;55.026;61.042;2022-08-14T04:58:43;18.10;60.90
45489;DHT22;31236;55.026;61.042;2022-08-14T05:01:15;18.20;60.80
45489;DHT22;31236;55.026;61.042;2022-08-14T05:03:47;18.20;59.60
45489;DHT22;31236;55.026;61.042;2022-08-14T05:06:19;18.30;60.20
45489;DHT22;31236;55.026;61.042;2022-08-14T05:08:50;18.40;60.10
45489;DHT22;31236;55.026;61.042;2022-08-14T05:11:20;18.50;59.70
45489;DHT22;31236;55.026;61.042;2022-08-14T05:13:50;18.60;60.10
45489;DHT22;31236;55.026;61.042;2022-08-14T05:16:22;18.70;60.60
45489;DHT22;31236;55.026;61.042;2022-08-14T05:18:54;18.80;58.20
45489;DHT22;31236;55.026;61.042;2022-08-14T05:21:24;18.90;56.00
45489;DHT22;31236;55.026;61.042;2022-08-14T05:23:57;18.80;55.60
45489;DHT22;31236;55.026;61.042;2022-08-14T05:26:27;18.90;57.30
45489;DHT22;31236;55.026;61.042;2022-08-14T05:28:57;18.90;58.50
45489;DHT22;31236;55.026;61.042;2022-08-14T05:31:28;19.00;56.80
45489;DHT22;31236;55.026;61.042;2022-08-14T05:33:58;18.90;55.50
45489;DHT22;31236;55.026;61.042;2022-08-14T05:36:30;18.90;54.70
45489;DHT22;31236;55.026;61.042;2022-08-14T05:39:01;19.00;54.90
45489;DHT22;31236;55.026;61.042;2022-08-14T05:41:33;19.00;53.70
45489;DHT22;31236;55.026;61.042;2022-08-14T05:44:04;19.00;54.60
45489;DHT22;31236;55.026;61.042;2022-08-14T05:46:34;19.10;54.50
45489;DHT22;31236;55.026;61.042;2022-08-14T05:49:05;19.20;54.80
45489;DHT22;31236;55.026;61.042;2022-08-14T05:51:35;19.20;52.70
45489;DHT22;31236;55.026;61.042;2022-08-14T05:54:06;19.20;53.80
45489;DHT22;31236;55.026;61.042;2022-08-14T05:56:36;19.30;53.60
45489;DHT22;31236;55.026;61.042;2022-08-14T05:59:07;19.40;53.50
45489;DHT22;31236;55.026;61.042;2022-08-14T06:01:38;19.50;53.70
45489;DHT22;31236;55.026;61.042;2022-08-14T06:04:09;19.70;52.60
45489;DHT22;31236;55.026;61.042;2022-08-14T06:06:40;19.70;49.90
45489;DHT22;31236;55.026;61.042;2022-08-14T06:09:10;19.70;51.90
45489;DHT22;31236;55.026;61.042;2022-08-14T06:11:44;19.70;51.90
45489;DHT22;31236;55.026;61.042;2022-08-14T06:14:15;19.80;49.90
45489;DHT22;31236;55.026;61.042;2022-08-14T06:16:45;19.80;50.00
45489;DHT22;31236;55.026;61.042;2022-08-14T06:19:16;19.90;50.40
45489;DHT22;31236;55.026;61.042;2022-08-14T06:21:48;20.00;50.60
45489;DHT22;31236;55.026;61.042;2022-08-14T06:24:21;20.00;47.60
45489;DHT22;31236;55.026;61.042;2022-08-14T06:26:53;19.90;47.50
45489;DHT22;31236;55.026;61.042;2022-08-14T06:29:24;19.90;47.40
45489;DHT22;31236;55.026;61.042;2022-08-14T06:31:55;19.90;46.70
45489;DHT22;31236;55.026;61.042;2022-08-14T06:34:30;20.00;45.00
45489;DHT22;31236;55.026;61.042;2022-08-14T06:37:01;20.00;46.00
45489;DHT22;31236;55.026;61.042;2022-08-14T06:39:33;20.10;45.60
45489;DHT22;31236;55.026;61.042;2022-08-14T06:42:03;20.20;46.90
45489;DHT22;31236;55.026;61.042;2022-08-14T06:44:36;20.30;45.50
45489;DHT22;31236;55.026;61.042;2022-08-14T06:47:09;20.40;46.10
45489;DHT22;31236;55.026;61.042;2022-08-14T06:49:41;20.40;45.40
45489;DHT22;31236;55.026;61.042;2022-08-14T06:52:13;20.50;46.60
45489;DHT22;31236;55.026;61.042;2022-08-14T06:54:47;20.50;45.50
45489;DHT22;31236;55.026;61.042;2022-08-14T06:57:19;20.50;47.80
45489;DHT22;31236;55.026;61.042;2022-08-14T06:59:51;20.50;46.30
45489;DHT22;31236;55.026;61.042;2022-08-14T07:02:22;20.40;43.70
45489;DHT22;31236;55.026;61.042;2022-08-14T07:05:11;20.40;45.50
45489;DHT22;31236;55.026;61.042;2022-08-14T07:08:01;20.50;46.00
45489;DHT22;31236;55.026;61.042;2022-08-14T07:10:34;20.50;45.30
45489;DHT22;31236;55.026;61.042;2022-08-14T07:13:06;20.40;45.40
45489;DHT22;31236;55.026;61.042;2022-08-14T07:15:37;20.40;46.10
45489;DHT22;31236;55.026;61.042;2022-08-14T07:18:11;20.50;44.10
45489;DHT22;31236;55.026;61.042;2022-08-14T07:20:41;20.70;45.10
45489;DHT22;31236;55.026;61.042;2022-08-14T07:23:14;20.70;44.90
45489;DHT22;31236;55.026;61.042;2022-08-14T07:25:49;20.80;44.30
45489;DHT22;31236;55.026;61.042;2022-08-14T07:28:42;20.80;44.20
45489;DHT22;31236;55.026;61.042;2022-08-14T07:31:15;20.90;44.60
45489;DHT22;31236;55.026;61.042;2022-08-14T07:33:48;20.70;42.80
45489;DHT22;31236;55.026;61.042;2022-08-14T07:36:21;20.70;45.50
45489;DHT22;31236;55.026;61.042;2022-08-14T07:38:53;20.90;45.20
45489;DHT22;31236;55.026;61.042;2022-08-14T07:41:24;20.90;45.20
45489;DHT22;31236;55.026;61.042;2022-08-14T07:43:55;21.00;43.50
45489;DHT22;31236;55.026;61.042;2022-08-14T07:46:29;20.90;43.90
45489;DHT22;31236;55.026;61.042;2022-08-14T07:49:01;20.90;43.70
45489;DHT22;31236;55.026;61.042;2022-08-14T07:51:36;20.90;44.60
45489;DHT22;31236;55.026;61.042;2022-08-14T07:54:06;20.90;44.10
45489;DHT22;31236;55.026;61.042;2022-08-14T07:56:40;20.80;44.70
45489;DHT22;31236;55.026;61.042;2022-08-14T07:59:12;20.70;43.60
45489;DHT22;31236;55.026;61.042;2022-08-14T08:01:46;20.80;44.50
45489;DHT22;31236;55.026;61.042;2022-08-14T08:04:56;20.90;44.50
45489;DHT22;31236;55.026;61.042;2022-08-14T08:06:52;21.00;44.00
45489;DHT22;31236;55.026;61.042;2022-08-14T08:09:26;21.10;43.20
45489;DHT22;31236;55.026;61.042;2022-08-14T08:14:52;21.10;42.50
45489;DHT22;31236;55.026;61.042;2022-08-14T08:17:25;21.00;43.90
45489;DHT22;31236;55.026;61.042;2022-08-14T08:19:59;21.10;43.70
45489;DHT22;31236;55.026;61.042;2022-08-14T08:22:33;21.10;44.20
45489;DHT22;31236;55.026;61.042;2022-08-14T08:25:07;21.10;45.30
45489;DHT22;31236;55.026;61.042;2022-08-14T08:27:40;21.10;46.20
45489;DHT22;31236;55.026;61.042;2022-08-14T08:30:11;21.20;46.80
45489;DHT22;31236;55.026;61.042;2022-08-14T08:32:42;21.20;44.60
45489;DHT22;31236;55.026;61.042;2022-08-14T08:38:23;21.30;43.30
45489;DHT22;31236;55.026;61.042;2022-08-14T08:40:55;21.30;41.80
45489;DHT22;31236;55.026;61.042;2022-08-14T08:43:31;21.20;42.40
45489;DHT22;31236;55.026;61.042;2022-08-14T08:46:38;21.20;42.50
45489;DHT22;31236;55.026;61.042;2022-08-14T08:48:58;21.30;42.60
45489;DHT22;31236;55.026;61.042;2022-08-14T08:54:25;21.30;42.00
45489;DHT22;31236;55.026;61.042;2022-08-14T08:56:55;21.40;44.20
45489;DHT22;31236;55.026;61.042;2022-08-14T08:59:31;21.40;43.30
45489;DHT22;31236;55.026;61.042;2022-08-14T09:02:05;21.50;42.20
45489;DHT22;31236;55.026;61.042;2022-08-14T09:04:40;21.40;43.20
45489;DHT22;31236;55.026;61.042;2022-08-14T09:07:14;21.50;43.40
45489;DHT22;31236;55.026;61.042;2022-08-14T09:09:45;21.40;45.20
45489;DHT22;31236;55.026;61.042;2022-08-14T09:12:34;21.50;42.20
45489;DHT22;31236;55.026;61.042;2022-08-14T09:15:08;21.60;42.40
45489;DHT22;31236;55.026;61.042;2022-08-14T09:17:41;21.60;40.80
45489;DHT22;31236;55.026;61.042;2022-08-14T09:20:13;21.60;42.60
45489;DHT22;31236;55.026;61.042;2022-08-14T09:22:44;21.60;41.50
45489;DHT22;31236;55.026;61.042;2022-08-14T09:25:35;21.60;42.90
45489;DHT22;31236;55.026;61.042;2022-08-14T09:28:08;21.60;43.00
45489;DHT22;31236;55.026;61.042;2022-08-14T09:30:59;21.60;43.40
45489;DHT22;31236;55.026;61.042;2022-08-14T09:33:40;21.50;42.00
45489;DHT22;31236;55.026;61.042;2022-08-14T09:48:21;21.80;40.90
45489;DHT22;31236;55.026;61.042;2022-08-14T09:50:53;21.80;41.20
45489;DHT22;31236;55.026;61.042;2022-08-14T09:53:47;21.80;41.00
45489;DHT22;31236;55.026;61.042;2022-08-14T09:56:18;21.80;42.40
45489;DHT22;31236;55.026;61.042;2022-08-14T09:58:48;21.80;42.30
45489;DHT22;31236;55.026;61.042;2022-08-14T10:01:21;21.80;40.30
45489;DHT22;31236;55.026;61.042;2022-08-14T10:03:52;21.80;40.60
45489;DHT22;31236;55.026;61.042;2022-08-14T10:06:26;21.70;41.20
45489;DHT22;31236;55.026;61.042;2022-08-14T10:09:03;21.80;40.40
45489;DHT22;31236;55.026;61.042;2022-08-14T10:11:35;21.80;41.40
45489;DHT22;31236;55.026;61.042;2022-08-14T10:14:27;21.80;41.80
45489;DHT22;31236;55.026;61.042;2022-08-14T10:17:00;21.70;42.00
45489;DHT22;31236;55.026;61.042;2022-08-14T10:19:31;21.80;41.60
45489;DHT22;31236;55.026;61.042;2022-08-14T10:24:54;21.90;41.80
45489;DHT22;31236;55.026;61.042;2022-08-14T10:27:25;21.90;41.30
45489;DHT22;31236;55.026;61.042;2022-08-14T10:29:58;22.00;42.30
45489;DHT22;31236;55.026;61.042;2022-08-14T10:32:30;22.00;40.40
45489;DHT22;31236;55.026;61.042;2022-08-14T10:35:20;22.10;41.50
45489;DHT22;31236;55.026;61.042;2022-08-14T10:37:52;22.00;41.40
45489;DHT22;31236;55.026;61.042;2022-08-14T10:40:42;22.00;41.30
45489;DHT22;31236;55.026;61.042;2022-08-14T10:43:34;22.10;42.30
45489;DHT22;31236;55.026;61.042;2022-08-14T10:46:38;22.10;43.00
45489;DHT22;31236;55.026;61.042;2022-08-14T10:48:39;22.00;42.20
45489;DHT22;31236;55.026;61.042;2022-08-14T10:51:10;21.80;41.60
45489;DHT22;31236;55.026;61.042;2022-08-14T10:53:41;21.80;40.20
45489;DHT22;31236;55.026;61.042;2022-08-14T10:56:15;21.90;40.60
45489;DHT22;31236;55.026;61.042;2022-08-14T10:58:45;21.90;41.70
45489;DHT22;31236;55.026;61.042;2022-08-14T11:01:16;22.10;42.60
45489;DHT22;31236;55.026;61.042;2022-08-14T11:03:46;22.20;41.10
45489;DHT22;31236;55.026;61.042;2022-08-14T11:06:17;22.20;40.30
45489;DHT22;31236;55.026;61.042;2022-08-14T11:08:49;22.30;42.20
45489;DHT22;31236;55.026;61.042;2022-08-14T11:11:20;22.40;41.60
45489;DHT22;31236;55.026;61.042;2022-08-14T11:16:43;22.40;38.70
45489;DHT22;31236;55.026;61.042;2022-08-14T11:19:16;22.40;40.10
45489;DHT22;31236;55.026;61.042;2022-08-14T11:21:46;22.40;40.70
45489;DHT22;31236;55.026;61.042;2022-08-14T11:26:52;22.70;42.10
45489;DHT22;31236;55.026;61.042;2022-08-14T11:29:23;22.70;41.80
45489;DHT22;31236;55.026;61.042;2022-08-14T11:31:55;22.80;41.80
45489;DHT22;31236;55.026;61.042;2022-08-14T11:34:27;22.80;41.30
45489;DHT22;31236;55.026;61.042;2022-08-14T11:37:06;22.70;42.00
45489;DHT22;31236;55.026;61.042;2022-08-14T11:39:29;22.60;40.00
45489;DHT22;31236;55.026;61.042;2022-08-14T11:41:59;22.60;42.30
45489;DHT22;31236;55.026;61.042;2022-08-14T11:44:30;22.60;40.30
45489;DHT22;31236;55.026;61.042;2022-08-14T11:47:00;22.60;41.50
45489;DHT22;31236;55.026;61.042;2022-08-14T11:49:31;22.60;40.90
45489;DHT22;31236;55.026;61.042;2022-08-14T11:52:01;22.60;43.20
45489;DHT22;31236;55.026;61.042;2022-08-14T11:54:33;22.50;42.00
45489;DHT22;31236;55.026;61.042;2022-08-14T11:57:04;22.50;43.50
45489;DHT22;31236;55.026;61.042;2022-08-14T11:59:34;22.30;41.20
45489;DHT22;31236;55.026;61.042;2022-08-14T12:02:24;22.20;40.80
45489;DHT22;31236;55.026;61.042;2022-08-14T12:04:55;22.30;40.80
45489;DHT22;31236;55.026;61.042;2022-08-14T12:07:27;22.20;40.20
45489;DHT22;31236;55.026;61.042;2022-08-14T12:09:57;22.10;40.10
45489;DHT22;31236;55.026;61.042;2022-08-14T12:12:28;22.20;41.40
45489;DHT22;31236;55.026;61.042;2022-08-14T12:14:59;22.20;40.00
45489;DHT22;31236;55.026;61.042;2022-08-14T12:20:44;22.30;40.80
45489;DHT22;31236;55.026;61.042;2022-08-14T12:23:34;22.20;41.80
45489;DHT22;31236;55.026;61.042;2022-08-14T12:26:06;22.30;41.70
45489;DHT22;31236;55.026;61.042;2022-08-14T12:28:37;22.40;41.80
45489;DHT22;31236;55.026;61.042;2022-08-14T12:31:27;22.50;40.20
45489;DHT22;31236;55.026;61.042;2022-08-14T12:34:17;22.30;41.00
45489;DHT22;31236;55.026;61.042;2022-08-14T12:36:59;22.00;41.10
45489;DHT22;31236;55.026;61.042;2022-08-14T12:39:23;21.90;40.40
45489;DHT22;31236;55.026;61.042;2022-08-14T12:41:55;21.90;40.20
45489;DHT22;31236;55.026;61.042;2022-08-14T12:44:47;21.90;40.40
45489;DHT22;31236;55.026;61.042;2022-08-14T12:47:25;21.90;40.90
45489;DHT22;31236;55.026;61.042;2022-08-14T12:49:54;21.90;41.80
45489;DHT22;31236;55.026;61.042;2022-08-14T12:52:47;22.10;40.40
45489;DHT22;31236;55.026;61.042;2022-08-14T12:55:18;22.00;39.80
45489;DHT22;31236;55.026;61.042;2022-08-14T12:57:50;22.00;40.40
45489;DHT22;31236;55.026;61.042;2022-08-14T13:00:23;22.00;39.60
45489;DHT22;31236;55.026;61.042;2022-08-14T13:02:54;22.10;39.60
45489;DHT22;31236;55.026;61.042;2022-08-14T13:05:27;22.10;39.60
45489;DHT22;31236;55.026;61.042;2022-08-14T13:08:02;22.10;40.80
45489;DHT22;31236;55.026;61.042;2022-08-14T13:10:33;22.10;42.20
45489;DHT22;31236;55.026;61.042;2022-08-14T13:13:05;22.10;39.70
45489;DHT22;31236;55.026;61.042;2022-08-14T13:15:40;22.10;40.50
45489;DHT22;31236;55.026;61.042;2022-08-14T13:18:14;22.10;40.20
45489;DHT22;31236;55.026;61.042;2022-08-14T13:20:44;22.00;40.10
45489;DHT22;31236;55.026;61.042;2022-08-14T13:23:17;22.00;40.80
45489;DHT22;31236;55.026;61.042;2022-08-14T13:25:49;21.90;40.40
45489;DHT22;31236;55.026;61.042;2022-08-14T13:28:21;21.90;40.90
45489;DHT22;31236;55.026;61.042;2022-08-14T13:30:55;21.90;39.90
45489;DHT22;31236;55.026;61.042;2022-08-14T13:33:26;21.80;39.60
45489;DHT22;31236;55.026;61.042;2022-08-14T13:35:58;21.80;40.00
45489;DHT22;31236;55.026;61.042;2022-08-14T13:38:30;21.80;40.50
45489;DHT22;31236;55.026;61.042;2022-08-14T13:41:03;21.90;40.90
45489;DHT22;31236;55.026;61.042;2022-08-14T13:43:36;21.80;41.50
45489;DHT22;31236;55.026;61.042;2022-08-14T13:46:08;21.80;40.20
45489;DHT22;31236;55.026;61.042;2022-08-14T13:48:38;21.80;40.80
45489;DHT22;31236;55.026;61.042;2022-08-14T13:51:11;21.70;39.80
45489;DHT22;31236;55.026;61.042;2022-08-14T13:53:47;21.70;39.70
45489;DHT22;31236;55.026;61.042;2022-08-14T13:56:19;21.60;40.50
45489;DHT22;31236;55.026;61.042;2022-08-14T13:58:50;21.60;41.10
45489;DHT22;31236;55.026;61.042;2022-08-14T14:01:26;21.60;41.30
45489;DHT22;31236;55.026;61.042;2022-08-14T14:04:01;21.70;41.10
45489;DHT22;31236;55.026;61.042;2022-08-14T14:06:35;21.70;41.10
45489;DHT22;31236;55.026;61.042;2022-08-14T14:09:06;21.80;41.90
45489;DHT22;31236;55.026;61.042;2022-08-14T14:11:37;21.90;44.90
45489;DHT22;31236;55.026;61.042;2022-08-14T14:14:08;22.00;42.60
45489;DHT22;31236;55.026;61.042;2022-08-14T14:16:40;22.00;42.60
45489;DHT22;31236;55.026;61.042;2022-08-14T14:19:11;21.90;41.80
45489;DHT22;31236;55.026;61.042;2022-08-14T14:24:36;21.50;42.40
45489;DHT22;31236;55.026;61.042;2022-08-14T14:27:07;21.40;43.30
45489;DHT22;31236;55.026;61.042;2022-08-14T14:29:41;21.30;45.80
45489;DHT22;31236;55.026;61.042;2022-08-14T14:32:16;21.10;44.60
45489;DHT22;31236;55.026;61.042;2022-08-14T14:34:51;21.10;44.50
45489;DHT22;31236;55.026;61.042;2022-08-14T14:37:25;21.10;48.20
45489;DHT22;31236;55.026;61.042;2022-08-14T14:39:58;21.00;49.20
45489;DHT22;31236;55.026;61.042;2022-08-14T14:42:32;21.00;50.20
45489;DHT22;31236;55.026;61.042;2022-08-14T14:45:26;20.90;51.30
45489;DHT22;31236;55.026;61.042;2022-08-14T14:47:57;20.70;52.50
45489;DHT22;31236;55.026;61.042;2022-08-14T14:50:31;20.50;53.00
45489;DHT22;31236;55.026;61.042;2022-08-14T14:53:23;20.40;54.00
45489;DHT22;31236;55.026;61.042;2022-08-14T14:55:57;20.20;54.40
45489;DHT22;31236;55.026;61.042;2022-08-14T14:58:31;20.00;55.60
45489;DHT22;31236;55.026;61.042;2022-08-14T15:01:06;19.80;56.70
45489;DHT22;31236;55.026;61.042;2022-08-14T15:03:37;19.70;57.70
45489;DHT22;31236;55.026;61.042;2022-08-14T15:06:09;19.50;58.10
45489;DHT22;31236;55.026;61.042;2022-08-14T15:08:39;19.40;58.70
45489;DHT22;31236;55.026;61.042;2022-08-14T15:11:12;19.20;58.60
45489;DHT22;31236;55.026;61.042;2022-08-14T15:13:42;19.10;59.40
45489;DHT22;31236;55.026;61.042;2022-08-14T15:16:13;19.00;59.60
45489;DHT22;31236;55.026;61.042;2022-08-14T15:18:44;18.80;60.10
45489;DHT22;31236;55.026;61.042;2022-08-14T15:21:14;18.70;60.50
45489;DHT22;31236;55.026;61.042;2022-08-14T15:23:45;18.60;60.80
45489;DHT22;31236;55.026;61.042;2022-08-14T15:26:17;18.50;61.30
45489;DHT22;31236;55.026;61.042;2022-08-14T15:28:48;18.40;61.60
45489;DHT22;31236;55.026;61.042;2022-08-14T15:31:19;18.30;62.20
45489;DHT22;31236;55.026;61.042;2022-08-14T15:33:49;18.10;62.40
45489;DHT22;31236;55.026;61.042;2022-08-14T15:36:41;18.00;62.60
45489;DHT22;31236;55.026;61.042;2022-08-14T15:39:13;17.90;63.00
45489;DHT22;31236;55.026;61.042;2022-08-14T15:41:45;17.80;63.60
45489;DHT22;31236;55.026;61.042;2022-08-14T15:44:18;17.70;63.80
45489;DHT22;31236;55.026;61.042;2022-08-14T15:46:50;17.60;63.90
45489;DHT22;31236;55.026;61.042;2022-08-14T15:49:24;17.50;64.00
45489;DHT22;31236;55.026;61.042;2022-08-14T15:51:58;17.50;64.50
45489;DHT22;31236;55.026;61.042;2022-08-14T15:54:30;17.30;64.70
45489;DHT22;31236;55.026;61.042;2022-08-14T15:57:39;17.30;64.60
45489;DHT22;31236;55.026;61.042;2022-08-14T15:59:37;17.20;65.00
45489;DHT22;31236;55.026;61.042;2022-08-14T16:02:26;17.10;64.40
45489;DHT22;31236;55.026;61.042;2022-08-14T16:04:58;16.90;64.60
45489;DHT22;31236;55.026;61.042;2022-08-14T16:07:30;16.80;64.80
45489;DHT22;31236;55.026;61.042;2022-08-14T16:10:05;16.80;65.10
45489;DHT22;31236;55.026;61.042;2022-08-14T16:12:36;16.70;64.70
45489;DHT22;31236;55.026;61.042;2022-08-14T16:15:08;16.50;64.20
45489;DHT22;31236;55.026;61.042;2022-08-14T16:17:40;16.50;65.00
45489;DHT22;31236;55.026;61.042;2022-08-14T16:20:12;16.40;64.50
45489;DHT22;31236;55.026;61.042;2022-08-14T16:22:46;16.30;64.90
45489;DHT22;31236;55.026;61.042;2022-08-14T16:25:19;16.30;65.20
45489;DHT22;31236;55.026;61.042;2022-08-14T16:27:51;16.30;65.40